createdAt,value
2022-08-14T00:02:05.424Z,12.60
2022-08-14T00:07:11.359Z,11.10
2022-08-14T00:12:23.949Z,11.10
2022-08-14T00:17:28.270Z,8.10
2022-08-14T00:22:56.390Z,9.00
2022-08-14T00:27:56.179Z,8.40
2022-08-14T00:33:16.268Z,8.40
2022-08-14T00:38:19.838Z,9.10
2022-08-14T00:43:21.966Z,8.70
2022-08-14T00:48:34.633Z,8.90
2022-08-14T00:53:42.885Z,8.30
2022-08-14T00:58:48.515Z,8.10
2022-08-14T01:03:53.423Z,8.00
2022-08-14T01:08:59.093Z,8.90
2022-08-14T01:14:04.736Z,10.20
2022-08-14T01:19:39.104Z,11.00
2022-08-14T01:24:44.150Z,9.90
2022-08-14T01:30:03.288Z,11.00
2022-08-14T01:35:19.978Z,11.30
2022-08-14T01:40:36.184Z,11.50
2022-08-14T01:45:48.992Z,11.20
2022-08-14T01:50:51.391Z,11.50
2022-08-14T01:55:57.250Z,10.90
2022-08-14T02:00:59.481Z,11.30
2022-08-14T02:06:03.860Z,11.30
2022-08-14T02:11:25.663Z,11.00
2022-08-14T02:16:32.428Z,11.80
2022-08-14T02:21:43.752Z,12.30
2022-08-14T02:28:18.478Z,11.50
2022-08-14T02:32:30.046Z,12.20
2022-08-14T02:37:45.671Z,13.30
2022-08-14T02:42:54.793Z,11.70
2022-08-14T02:48:01.848Z,13.00
2022-08-14T02:53:04.659Z,12.20
2022-08-14T02:58:10.471Z,11.90
2022-08-14T03:03:31.709Z,11.50
2022-08-14T03:08:39.387Z,11.60
2022-08-14T03:13:51.489Z,11.60
2022-08-14T03:19:00.252Z,11.60
2022-08-14T03:24:07.368Z,11.30
2022-08-14T03:29:24.613Z,11.30
2022-08-14T03:34:52.608Z,12.40
2022-08-14T03:39:58.082Z,12.90
2022-08-14T03:45:26.801Z,13.30
2022-08-14T03:50:27.691Z,11.80
2022-08-14T03:55:33.928Z,12.90
2022-08-14T04:00:47.886Z,13.50
2022-08-14T04:05:50.400Z,14.10
2022-08-14T04:10:54.429Z,13.30
2022-08-14T04:16:01.327Z,13.10
2022-08-14T04:21:04.262Z,13.50
2022-08-14T04:26:14.312Z,13.30
2022-08-14T04:32:59.194Z,13.60
2022-08-14T04:36:59.599Z,13.00
2022-08-14T04:42:20.322Z,12.70
2022-08-14T04:47:46.366Z,13.00
2022-08-14T04:52:48.992Z,13.40
2022-08-14T04:57:56.814Z,14.10
2022-08-14T05:03:03.014Z,11.70
2022-08-14T05:08:31.988Z,11.20
2022-08-14T05:14:06.493Z,12.00
2022-08-14T05:19:17.849Z,11.00
2022-08-14T05:24:26.277Z,12.20
2022-08-14T05:34:32.348Z,12.40
2022-08-14T05:39:35.473Z,11.00
2022-08-14T05:44:38.776Z,10.80
2022-08-14T05:49:40.657Z,10.70
2022-08-14T05:54:43.095Z,12.20
2022-08-14T05:59:46.527Z,13.10
2022-08-14T06:04:49.410Z,13.90
2022-08-14T06:09:52.484Z,14.10
2022-08-14T06:14:54.844Z,14.20
2022-08-14T06:20:02.865Z,13.70
2022-08-14T06:25:08.077Z,12.50
2022-08-14T06:30:16.002Z,13.40
2022-08-14T06:35:20.119Z,13.00
2022-08-14T06:40:42.998Z,12.80
2022-08-14T06:45:54.013Z,13.10
2022-08-14T06:50:57.914Z,12.90
2022-08-14T06:56:02.040Z,13.10
2022-08-14T07:01:27.813Z,13.40
2022-08-14T07:06:46.863Z,14.00
2022-08-14T07:11:51.256Z,13.70
2022-08-14T07:16:53.319Z,11.60
2022-08-14T07:21:56.332Z,11.20
2022-08-14T07:26:59.034Z,11.10
2022-08-14T07:32:01.765Z,10.80
2022-08-14T07:37:06.100Z,9.30
2022-08-14T07:42:08.677Z,9.50
2022-08-14T07:47:11.888Z,10.40
2022-08-14T07:52:14.057Z,10.50
2022-08-14T07:57:25.147Z,10.00
2022-08-14T08:02:31.148Z,9.60
2022-08-14T08:07:36.243Z,10.50
2022-08-14T08:12:42.423Z,9.90
2022-08-14T08:17:53.411Z,8.40
2022-08-14T08:28:19.812Z,9.20
2022-08-14T08:33:32.073Z,8.00
2022-08-14T08:39:14.533Z,9.40
2022-08-14T08:44:05.529Z,10.20
2022-08-14T08:49:10.251Z,9.20
2022-08-14T08:54:18.487Z,9.20
2022-08-14T08:59:31.417Z,9.60
2022-08-14T09:04:53.480Z,9.10
2022-08-14T09:09:59.477Z,9.30
2022-08-14T09:15:11.478Z,7.50
2022-08-14T09:20:25.744Z,6.20
2022-08-14T09:26:00.703Z,7.00
2022-08-14T09:31:07.371Z,8.20
2022-08-14T09:36:57.370Z,8.30
2022-08-14T09:42:49.842Z,8.50
2022-08-14T09:47:55.526Z,8.50
2022-08-14T09:53:17.988Z,8.30
2022-08-14T09:58:24.663Z,7.70
2022-08-14T10:03:36.179Z,8.30
2022-08-14T10:08:51.041Z,9.50
2022-08-14T10:13:58.384Z,8.60
2022-08-14T10:19:23.730Z,9.30
2022-08-14T10:24:36.136Z,8.90
2022-08-14T10:29:46.373Z,9.40
2022-08-14T10:34:52.843Z,9.80
2022-08-14T10:40:05.579Z,9.20
2022-08-14T10:45:25.619Z,7.10
2022-08-14T10:50:33.272Z,7.70
2022-08-14T10:55:44.904Z,6.50
2022-08-14T11:00:57.125Z,6.70
2022-08-14T11:11:16.118Z,6.20
2022-08-14T11:16:28.751Z,8.00
2022-08-14T11:21:36.221Z,8.70
2022-08-14T11:26:44.360Z,9.90
2022-08-14T11:31:51.838Z,6.90
2022-08-14T11:37:17.911Z,5.60
2022-08-14T11:42:58.784Z,5.00
2022-08-14T11:48:12.584Z,4.60
2022-08-14T11:53:21.166Z,5.70
2022-08-14T11:58:30.758Z,4.60
2022-08-14T12:03:51.200Z,3.90
2022-08-14T12:08:56.165Z,4.20
2022-08-14T12:14:13.333Z,5.00
2022-08-14T12:19:56.729Z,6.60
2022-08-14T12:25:00.713Z,6.00
2022-08-14T12:30:05.733Z,6.50
2022-08-14T12:35:09.691Z,7.10
2022-08-14T12:40:15.559Z,6.80
2022-08-14T12:45:33.927Z,7.00
2022-08-14T12:50:42.110Z,5.70
2022-08-14T12:56:22.512Z,6.80
2022-08-14T13:01:31.241Z,8.00
2022-08-14T13:06:37.643Z,8.40
2022-08-14T13:11:58.409Z,8.70
2022-08-14T13:17:03.045Z,9.50
2022-08-14T13:22:10.102Z,9.60
2022-08-14T13:27:28.294Z,9.50
2022-08-14T13:32:44.488Z,10.30
2022-08-14T13:37:53.475Z,9.70
2022-08-14T13:43:02.224Z,10.60
2022-08-14T13:48:04.611Z,9.40
2022-08-14T13:53:12.962Z,9.30
2022-08-14T13:58:33.735Z,9.80
2022-08-14T14:03:39.431Z,10.40
2022-08-14T14:08:50.067Z,9.90
2022-08-14T14:14:00.386Z,10.50
2022-08-14T14:19:09.160Z,10.00
2022-08-14T14:24:15.441Z,10.50
2022-08-14T14:29:24.112Z,9.80
2022-08-14T14:34:32.985Z,9.70
2022-08-14T14:40:54.524Z,10.20
2022-08-14T14:45:15.567Z,10.10
2022-08-14T14:50:20.812Z,10.60
2022-08-14T14:55:54.313Z,11.80
2022-08-14T15:00:55.143Z,10.40
2022-08-14T15:05:58.556Z,11.30
2022-08-14T15:11:00.782Z,10.30
2022-08-14T15:16:04.199Z,10.60
2022-08-14T15:21:08.566Z,10.20
2022-08-14T15:26:24.189Z,10.10
2022-08-14T15:31:36.320Z,10.00
2022-08-14T15:36:43.924Z,10.10
2022-08-14T15:41:48.545Z,9.10
2022-08-14T15:46:54.519Z,10.20
2022-08-14T15:51:59.341Z,8.70
2022-08-14T15:57:08.792Z,8.30
2022-08-14T16:02:10.869Z,6.40
2022-08-14T16:07:14.352Z,7.10
2022-08-14T16:12:19.112Z,7.30
2022-08-14T16:17:22.593Z,7.10
2022-08-14T16:22:58.639Z,7.70
2022-08-14T16:27:54.862Z,6.70
2022-08-14T16:38:45.395Z,4.60
2022-08-14T16:43:54.120Z,4.30
2022-08-14T16:49:06.877Z,3.60
2022-08-14T16:54:34.149Z,3.90
2022-08-14T16:59:52.709Z,4.50
2022-08-14T17:05:24.316Z,4.80
2022-08-14T17:10:28.283Z,4.90
2022-08-14T17:15:31.096Z,5.70
2022-08-14T17:20:53.357Z,4.70
2022-08-14T17:25:58.775Z,4.70
2022-08-14T17:31:03.044Z,5.60
2022-08-14T17:36:23.101Z,5.70
2022-08-14T17:41:35.951Z,5.40
2022-08-14T17:46:43.326Z,5.90
2022-08-14T17:52:01.330Z,5.90
2022-08-14T17:57:10.515Z,6.40
2022-08-14T18:02:22.082Z,6.60
2022-08-14T18:08:00.093Z,6.30
2022-08-14T18:12:47.074Z,6.60
2022-08-14T18:17:54.000Z,7.00
2022-08-14T18:22:57.233Z,7.70
2022-08-14T18:28:01.515Z,7.40
2022-08-14T18:33:23.186Z,8.60
2022-08-14T18:39:00.096Z,7.40
2022-08-14T18:44:02.873Z,8.00
2022-08-14T18:49:17.343Z,7.60
2022-08-14T18:54:32.769Z,12.20
2022-08-14T18:59:39.090Z,8.70
2022-08-14T19:04:43.090Z,8.80
2022-08-14T19:09:58.582Z,9.00
2022-08-14T19:15:08.684Z,7.60
2022-08-14T19:20:12.145Z,8.20
2022-08-14T19:25:47.423Z,7.90
2022-08-14T19:31:37.345Z,7.70
2022-08-14T19:37:05.168Z,7.50
2022-08-14T19:42:14.055Z,8.20
2022-08-14T19:47:49.806Z,7.50
2022-08-14T19:53:16.727Z,7.50
2022-08-14T19:58:28.039Z,8.10
2022-08-14T20:11:03.513Z,8.80
2022-08-14T20:14:30.519Z,9.10
2022-08-14T20:19:34.615Z,8.70
2022-08-14T20:24:44.836Z,8.00
2022-08-14T20:30:34.162Z,9.20
2022-08-14T20:35:55.688Z,9.20
2022-08-14T20:41:23.079Z,9.30
2022-08-14T20:46:42.453Z,8.00
2022-08-14T20:52:19.077Z,8.20
2022-08-14T20:57:54.949Z,8.30
2022-08-14T21:04:04.966Z,10.20
2022-08-14T21:10:04.907Z,8.60
2022-08-14T21:15:27.545Z,10.00
2022-08-14T21:20:42.309Z,9.10
2022-08-14T21:25:44.494Z,10.20
2022-08-14T21:31:18.532Z,10.40
2022-08-14T21:36:47.230Z,10.20
2022-08-14T21:41:58.401Z,10.80
2022-08-14T21:47:00.824Z,10.10
2022-08-14T21:52:52.226Z,10.70
2022-08-14T21:58:46.358Z,9.90
2022-08-14T22:03:55.339Z,10.30
2022-08-14T22:08:59.791Z,10.80
2022-08-14T22:14:25.490Z,10.00
2022-08-14T22:19:47.429Z,10.40
2022-08-14T22:25:01.030Z,10.80
2022-08-14T22:30:13.122Z,12.10
2022-08-14T22:35:16.005Z,12.10
2022-08-14T22:41:02.239Z,12.00
2022-08-14T22:45:55.512Z,12.00
2022-08-14T22:51:03.436Z,12.90
2022-08-14T22:56:20.511Z,12.80
2022-08-14T23:01:57.131Z,11.30
2022-08-14T23:08:59.940Z,11.30
2022-08-14T23:12:54.657Z,12.70
2022-08-14T23:18:03.657Z,13.30
2022-08-14T23:23:22.941Z,13.60
2022-08-14T23:28:34.218Z,14.10
2022-08-14T23:33:52.032Z,13.50
2022-08-14T23:38:56.721Z,13.10
2022-08-14T23:43:58.760Z,12.30
2022-08-14T23:49:01.935Z,11.00
2022-08-14T23:54:05.385Z,11.00
2022-08-14T23:59:27.418Z,14.00
